createdAt,value
2019-02-26T00:00:32.758Z,48.40
2019-02-26T00:03:02.405Z,48.38
2019-02-26T00:05:30.718Z,50.80
2019-02-26T00:08:00.167Z,53.70
2019-02-26T00:10:29.002Z,51.20
2019-02-26T00:12:57.111Z,55.60
2019-02-26T00:15:24.388Z,46.58
2019-02-26T00:17:53.007Z,49.18
2019-02-26T00:20:20.278Z,53.15
2019-02-26T00:22:47.767Z,46.70
2019-02-26T00:25:16.158Z,50.15
2019-02-26T00:27:43.852Z,45.95
2019-02-26T00:30:11.829Z,48.30
2019-02-26T00:32:40.557Z,46.65
2019-02-26T00:35:09.314Z,47.65
2019-02-26T00:37:36.566Z,47.17
2019-02-26T00:40:04.302Z,44.33
2019-02-26T00:42:33.364Z,45.83
2019-02-26T00:45:02.883Z,44.03
2019-02-26T00:47:33.889Z,46.73
2019-02-26T00:49:59.309Z,43.65
2019-02-26T00:52:28.165Z,42.90
2019-02-26T00:54:57.606Z,43.17
2019-02-26T00:57:27.152Z,43.28
2019-02-26T00:59:53.457Z,42.05
2019-02-26T01:02:20.559Z,45.05
2019-02-26T01:04:48.644Z,41.40
2019-02-26T01:07:19.007Z,41.85
2019-02-26T01:09:47.877Z,41.90
2019-02-26T01:12:18.316Z,46.40
2019-02-26T01:14:50.310Z,44.03
2019-02-26T01:17:18.841Z,41.10
2019-02-26T01:19:46.430Z,44.88
2019-02-26T01:22:13.596Z,43.75
2019-02-26T01:24:41.007Z,45.17
2019-02-26T01:27:08.385Z,42.05
2019-02-26T01:29:35.843Z,44.65
2019-02-26T01:32:03.453Z,46.15
2019-02-26T01:34:30.900Z,46.28
2019-02-26T01:37:00.826Z,45.08
2019-02-26T01:39:28.254Z,44.73
2019-02-26T01:41:56.356Z,47.73
2019-02-26T01:44:28.081Z,47.35
2019-02-26T01:46:55.541Z,44.80
2019-02-26T01:49:25.870Z,46.75
2019-02-26T01:51:53.949Z,48.78
2019-02-26T01:54:21.144Z,48.00
2019-02-26T01:56:48.298Z,47.45
2019-02-26T01:59:18.297Z,47.53
2019-02-26T02:01:46.467Z,43.85
2019-02-26T02:04:14.964Z,50.17
2019-02-26T02:06:42.938Z,50.63
2019-02-26T02:09:13.253Z,49.35
2019-02-26T02:11:40.715Z,49.65
2019-02-26T02:14:10.248Z,51.65
2019-02-26T02:16:37.533Z,50.05
2019-02-26T02:19:04.884Z,53.65
2019-02-26T02:21:33.797Z,48.55
2019-02-26T02:24:01.018Z,51.83
2019-02-26T02:26:28.251Z,51.48
2019-02-26T02:28:55.339Z,49.40
2019-02-26T02:31:24.555Z,50.28
2019-02-26T02:33:52.016Z,53.45
2019-02-26T02:36:22.504Z,51.28
2019-02-26T02:38:48.287Z,50.33
2019-02-26T02:41:15.333Z,48.92
2019-02-26T02:43:42.419Z,51.18
2019-02-26T02:46:10.078Z,52.08
2019-02-26T02:48:37.447Z,49.03
2019-02-26T02:51:05.471Z,51.33
2019-02-26T02:53:33.480Z,49.63
2019-02-26T02:56:00.924Z,50.65
2019-02-26T02:58:28.014Z,48.45
2019-02-26T03:00:58.002Z,48.70
2019-02-26T03:03:25.754Z,55.15
2019-02-26T03:05:52.877Z,50.08
2019-02-26T03:08:22.340Z,49.65
2019-02-26T03:10:49.425Z,51.73
2019-02-26T03:13:16.993Z,54.10
2019-02-26T03:15:47.370Z,49.50
2019-02-26T03:18:16.782Z,50.38
2019-02-26T03:20:43.894Z,51.48
2019-02-26T03:23:15.061Z,53.02
2019-02-26T03:25:41.589Z,51.48
2019-02-26T03:28:09.221Z,49.85
2019-02-26T03:30:40.611Z,52.03
2019-02-26T03:33:06.932Z,50.35
2019-02-26T03:35:34.337Z,49.77
2019-02-26T03:38:03.481Z,50.65
2019-02-26T03:40:32.952Z,50.92
2019-02-26T03:43:01.336Z,48.42
2019-02-26T03:45:28.899Z,49.77
2019-02-26T03:47:58.020Z,52.98
2019-02-26T03:50:27.100Z,48.20
2019-02-26T03:52:54.081Z,51.83
2019-02-26T03:55:21.247Z,55.12
2019-02-26T03:57:52.879Z,50.80
2019-02-26T04:00:19.984Z,55.45
2019-02-26T04:02:49.049Z,59.37
2019-02-26T04:05:16.520Z,56.13
2019-02-26T04:07:43.714Z,57.85
2019-02-26T04:10:11.096Z,54.53
2019-02-26T04:12:41.869Z,52.67
2019-02-26T04:15:10.147Z,51.48
2019-02-26T04:17:39.503Z,50.98
2019-02-26T04:20:07.209Z,48.63
2019-02-26T04:22:35.302Z,53.23
2019-02-26T04:25:18.542Z,52.27
2019-02-26T04:28:10.880Z,52.53
2019-02-26T04:31:26.602Z,50.17
2019-02-26T04:34:48.498Z,52.50
2019-02-26T04:37:38.484Z,53.13
2019-02-26T04:40:17.490Z,51.65
2019-02-26T04:43:31.319Z,53.33
2019-02-26T04:46:39.541Z,49.35
2019-02-26T04:49:07.275Z,50.20
2019-02-26T04:51:36.429Z,54.63
2019-02-26T04:54:03.722Z,51.30
2019-02-26T04:56:35.722Z,51.95
2019-02-26T04:59:02.933Z,54.88
2019-02-26T05:01:29.753Z,55.60
2019-02-26T05:03:56.953Z,50.52
2019-02-26T05:06:25.289Z,57.17
2019-02-26T05:08:52.263Z,52.40
2019-02-26T05:11:31.696Z,52.27
2019-02-26T05:13:48.610Z,51.18
2019-02-26T05:16:16.028Z,50.65
2019-02-26T05:18:46.245Z,53.45
2019-02-26T05:21:13.086Z,52.67
2019-02-26T05:23:40.191Z,48.90
2019-02-26T05:26:08.239Z,52.83
2019-02-26T05:28:37.921Z,52.03
2019-02-26T05:31:06.579Z,52.50
2019-02-26T05:33:34.704Z,51.20
2019-02-26T05:36:03.536Z,53.33
2019-02-26T05:38:32.986Z,50.05
2019-02-26T05:41:01.704Z,50.73
2019-02-26T05:43:30.655Z,53.50
2019-02-26T05:46:00.730Z,48.75
2019-02-26T05:48:27.631Z,52.73
2019-02-26T05:50:54.783Z,52.35
2019-02-26T05:53:21.869Z,51.10
2019-02-26T05:55:51.239Z,51.95
2019-02-26T05:58:19.371Z,51.30
2019-02-26T06:00:47.456Z,51.73
2019-02-26T06:03:16.274Z,51.13
2019-02-26T06:05:45.839Z,50.48
2019-02-26T06:08:12.406Z,50.88
2019-02-26T06:10:40.360Z,51.77
2019-02-26T06:13:09.950Z,53.10
2019-02-26T06:15:36.742Z,49.30
2019-02-26T06:18:04.188Z,53.48
2019-02-26T06:20:33.978Z,50.50
2019-02-26T06:23:00.663Z,52.03
2019-02-26T06:25:27.721Z,53.52
2019-02-26T06:27:55.962Z,52.78
2019-02-26T06:30:23.150Z,54.40
2019-02-26T06:32:50.253Z,52.85
2019-02-26T06:35:19.411Z,56.83
2019-02-26T06:37:46.484Z,53.52
2019-02-26T06:40:13.967Z,57.05
2019-02-26T06:42:41.190Z,56.70
2019-02-26T06:45:10.976Z,55.03
2019-02-26T06:47:38.794Z,55.48
2019-02-26T06:50:08.166Z,55.90
2019-02-26T06:52:38.210Z,50.50
2019-02-26T06:55:09.726Z,57.17
2019-02-26T06:57:38.823Z,54.50
2019-02-26T07:00:08.978Z,53.17
2019-02-26T07:02:35.978Z,57.40
2019-02-26T07:05:03.911Z,55.50
2019-02-26T07:07:31.161Z,53.48
2019-02-26T07:09:58.339Z,58.95
2019-02-26T07:12:26.475Z,53.02
2019-02-26T07:14:55.575Z,53.78
2019-02-26T07:17:23.219Z,55.00
2019-02-26T07:19:51.272Z,56.42
2019-02-26T07:22:21.922Z,58.87
2019-02-26T07:24:51.423Z,53.60
2019-02-26T07:27:18.164Z,54.23
2019-02-26T07:29:47.436Z,57.03
2019-02-26T07:32:14.771Z,54.45
2019-02-26T07:34:45.260Z,55.40
2019-02-26T07:37:13.548Z,53.90
2019-02-26T07:39:41.984Z,53.75
2019-02-26T07:42:11.597Z,53.78
2019-02-26T07:44:38.926Z,58.28
2019-02-26T07:47:08.694Z,55.85
2019-02-26T07:49:35.370Z,57.23
2019-02-26T07:52:05.486Z,53.70
2019-02-26T07:54:31.711Z,62.20
2019-02-26T07:57:02.090Z,56.33
2019-02-26T07:59:32.021Z,52.30
2019-02-26T08:01:57.052Z,52.83
2019-02-26T08:04:24.438Z,55.52
2019-02-26T08:06:52.375Z,58.28
2019-02-26T08:09:23.174Z,57.90
2019-02-26T08:11:50.169Z,59.58
2019-02-26T08:14:18.495Z,55.28
2019-02-26T08:16:49.230Z,54.27
2019-02-26T08:19:15.803Z,54.38
2019-02-26T08:21:42.894Z,53.85
2019-02-26T08:24:12.019Z,53.95
2019-02-26T08:26:40.482Z,55.17
2019-02-26T08:29:09.830Z,54.25
2019-02-26T08:31:37.707Z,53.92
2019-02-26T08:34:04.856Z,58.90
2019-02-26T08:36:31.912Z,51.95
2019-02-26T08:38:59.162Z,53.02
2019-02-26T08:41:26.246Z,52.40
2019-02-26T08:43:54.569Z,54.83
2019-02-26T08:46:22.290Z,62.90
2019-02-26T08:48:50.827Z,55.08
2019-02-26T08:51:19.100Z,57.15
2019-02-26T08:53:49.497Z,57.75
2019-02-26T08:56:18.870Z,58.55
2019-02-26T08:58:46.110Z,54.67
2019-02-26T09:01:13.241Z,60.83
2019-02-26T09:03:41.049Z,56.53
2019-02-26T09:06:13.269Z,59.38
2019-02-26T09:08:38.591Z,60.08
2019-02-26T09:11:10.867Z,61.73
2019-02-26T09:13:41.190Z,58.48
2019-02-26T09:16:09.053Z,66.37
2019-02-26T09:18:38.150Z,60.40
2019-02-26T09:21:07.147Z,59.85
2019-02-26T09:23:34.391Z,56.60
2019-02-26T09:26:02.563Z,53.68
2019-02-26T09:28:32.113Z,57.23
2019-02-26T09:31:01.852Z,60.58
2019-02-26T09:33:32.838Z,57.17
2019-02-26T09:35:57.694Z,54.25
2019-02-26T09:38:25.795Z,54.67
2019-02-26T09:40:54.608Z,58.52
2019-02-26T09:43:23.998Z,55.40
2019-02-26T09:45:52.391Z,59.93
2019-02-26T09:48:21.970Z,58.28
2019-02-26T09:50:49.025Z,54.48
2019-02-26T09:53:16.008Z,57.45
2019-02-26T09:55:43.047Z,59.25
2019-02-26T09:58:11.038Z,58.30
2019-02-26T10:00:38.134Z,61.37
2019-02-26T10:03:07.995Z,58.95
2019-02-26T10:05:34.500Z,56.73
2019-02-26T10:08:03.442Z,55.17
2019-02-26T10:10:33.505Z,57.75
2019-02-26T10:13:02.126Z,62.83
2019-02-26T10:15:28.654Z,65.15
2019-02-26T10:17:58.648Z,60.20
2019-02-26T10:20:28.311Z,61.68
2019-02-26T10:22:57.158Z,57.67
2019-02-26T10:25:23.935Z,59.10
2019-02-26T10:27:52.297Z,57.23
2019-02-26T10:30:19.814Z,64.07
2019-02-26T10:32:47.125Z,61.02
2019-02-26T10:35:18.509Z,58.90
2019-02-26T10:37:51.415Z,60.65
2019-02-26T10:40:19.680Z,60.28
2019-02-26T10:42:47.034Z,58.63
2019-02-26T10:45:15.886Z,59.90
2019-02-26T10:47:43.506Z,62.98
2019-02-26T10:50:16.190Z,57.17
2019-02-26T10:52:42.404Z,60.63
2019-02-26T10:55:12.749Z,63.33
2019-02-26T10:57:39.508Z,61.08
2019-02-26T11:00:11.582Z,57.35
2019-02-26T11:02:43.215Z,54.60
2019-02-26T11:05:11.377Z,62.05
2019-02-26T11:07:40.055Z,59.08
2019-02-26T11:10:07.481Z,59.45
2019-02-26T11:12:34.756Z,60.15
2019-02-26T11:15:04.357Z,53.65
2019-02-26T11:17:32.625Z,54.10
2019-02-26T11:20:01.291Z,52.50
2019-02-26T11:22:28.546Z,56.73
2019-02-26T11:24:56.107Z,51.37
2019-02-26T11:27:24.479Z,56.92
2019-02-26T11:29:52.043Z,52.95
2019-02-26T11:32:20.347Z,55.95
2019-02-26T11:34:47.705Z,49.58
2019-02-26T11:37:15.304Z,52.35
2019-02-26T11:39:42.387Z,45.92
2019-02-26T11:42:10.505Z,49.27
2019-02-26T11:44:37.645Z,43.05
2019-02-26T11:47:04.643Z,42.17
2019-02-26T11:49:31.757Z,42.58
2019-02-26T11:51:58.966Z,38.28
2019-02-26T11:54:26.199Z,43.38
2019-02-26T11:56:53.419Z,44.00
2019-02-26T11:59:20.810Z,39.78
2019-02-26T12:01:48.375Z,41.70
2019-02-26T12:04:17.049Z,44.40
2019-02-26T12:06:44.256Z,41.73
2019-02-26T12:09:13.657Z,37.60
2019-02-26T12:11:40.233Z,38.38
2019-02-26T12:14:08.196Z,32.90
2019-02-26T12:16:36.081Z,33.75
2019-02-26T12:19:05.461Z,34.05
2019-02-26T12:21:34.502Z,30.80
2019-02-26T12:24:03.434Z,34.65
2019-02-26T12:26:32.064Z,30.82
2019-02-26T12:29:00.083Z,33.83
2019-02-26T12:31:31.395Z,32.15
2019-02-26T12:33:57.522Z,37.78
2019-02-26T12:36:26.494Z,30.27
2019-02-26T12:38:54.259Z,32.95
2019-02-26T12:41:22.699Z,32.28
2019-02-26T12:43:49.666Z,39.35
2019-02-26T12:46:16.728Z,32.40
2019-02-26T12:48:46.497Z,28.80
2019-02-26T12:51:12.906Z,31.75
2019-02-26T12:56:15.442Z,31.30
2019-02-26T12:58:45.131Z,30.20
2019-02-26T13:01:12.071Z,27.70
2019-02-26T13:03:42.539Z,22.62
2019-02-26T13:06:12.012Z,26.27
2019-02-26T13:08:39.915Z,27.90
2019-02-26T13:11:07.598Z,31.15
2019-02-26T13:13:34.694Z,30.15
2019-02-26T13:16:01.845Z,31.17
2019-02-26T13:18:28.939Z,34.95
2019-02-26T13:20:59.517Z,32.17
2019-02-26T13:23:25.245Z,35.88
2019-02-26T13:25:52.766Z,34.58
2019-02-26T13:28:19.979Z,38.30
2019-02-26T13:30:47.084Z,38.28
2019-02-26T13:33:17.815Z,36.77
2019-02-26T13:35:46.717Z,44.00
2019-02-26T13:38:12.339Z,41.98
2019-02-26T13:40:39.293Z,38.65
2019-02-26T13:43:07.527Z,42.03
2019-02-26T13:45:34.732Z,40.52
2019-02-26T13:48:02.283Z,40.33
2019-02-26T13:50:29.727Z,38.28
2019-02-26T13:52:57.196Z,39.63
2019-02-26T13:55:24.806Z,39.85
2019-02-26T13:57:51.941Z,38.63
2019-02-26T14:00:25.983Z,35.90
2019-02-26T14:02:48.227Z,42.50
2019-02-26T14:05:15.240Z,40.52
2019-02-26T14:07:42.845Z,41.28
2019-02-26T14:10:11.839Z,41.18
2019-02-26T14:12:39.111Z,40.45
2019-02-26T14:15:06.932Z,38.63
2019-02-26T14:17:34.121Z,40.40
2019-02-26T14:20:01.551Z,42.90
2019-02-26T14:22:30.199Z,44.03
2019-02-26T14:24:57.302Z,40.45
2019-02-26T14:27:24.699Z,38.70
2019-02-26T14:29:51.686Z,37.20
2019-02-26T14:32:18.982Z,34.88
2019-02-26T14:34:45.987Z,42.27
2019-02-26T14:37:12.988Z,42.23
2019-02-26T14:39:40.021Z,40.85
2019-02-26T14:42:07.133Z,41.42
2019-02-26T14:44:34.213Z,43.00
2019-02-26T14:47:02.193Z,42.13
2019-02-26T14:49:29.638Z,40.30
2019-02-26T14:51:56.950Z,36.98
2019-02-26T14:54:23.967Z,42.95
2019-02-26T14:56:51.576Z,32.80
2019-02-26T14:59:19.107Z,35.73
2019-02-26T15:01:46.218Z,34.20
2019-02-26T15:04:13.427Z,37.95
2019-02-26T15:06:40.488Z,36.83
2019-02-26T15:09:07.672Z,33.65
2019-02-26T15:11:35.567Z,38.13
2019-02-26T15:14:05.264Z,37.93
2019-02-26T15:16:32.378Z,39.45
2019-02-26T15:18:59.687Z,41.92
2019-02-26T15:21:27.974Z,39.03
2019-02-26T15:23:55.739Z,38.25
2019-02-26T15:26:23.179Z,39.00
2019-02-26T15:28:50.454Z,42.00
2019-02-26T15:31:17.572Z,40.35
2019-02-26T15:33:44.643Z,40.58
2019-02-26T15:36:11.737Z,37.85
2019-02-26T15:38:39.332Z,42.10
2019-02-26T15:41:06.651Z,40.43
2019-02-26T15:43:33.760Z,41.08
2019-02-26T15:46:01.076Z,41.83
2019-02-26T15:48:28.432Z,42.20
2019-02-26T15:50:55.763Z,42.58
2019-02-26T15:53:24.783Z,44.15
2019-02-26T15:55:52.356Z,44.18
2019-02-26T15:58:19.767Z,45.28
2019-02-26T16:00:46.846Z,43.15
2019-02-26T16:03:13.959Z,46.05
2019-02-26T16:05:42.189Z,43.92
2019-02-26T16:08:09.327Z,42.00
2019-02-26T16:10:36.447Z,45.15
2019-02-26T16:13:03.976Z,45.50
2019-02-26T16:15:31.839Z,47.15
2019-02-26T16:17:59.060Z,46.35
2019-02-26T16:20:29.350Z,47.62
2019-02-26T16:22:57.443Z,49.20
2019-02-26T16:25:24.672Z,51.37
2019-02-26T16:27:53.780Z,47.65
2019-02-26T16:30:20.790Z,47.23
2019-02-26T16:32:48.941Z,50.98
2019-02-26T16:35:16.319Z,47.93
2019-02-26T16:37:43.651Z,50.43
2019-02-26T16:40:10.907Z,51.58
2019-02-26T16:42:38.650Z,50.55
2019-02-26T16:45:09.217Z,52.85
2019-02-26T16:47:36.500Z,55.33
2019-02-26T16:50:12.642Z,53.65
2019-02-26T16:52:34.040Z,52.27
2019-02-26T16:55:01.236Z,54.33
2019-02-26T16:57:28.969Z,60.52
2019-02-26T16:59:56.142Z,53.10
2019-02-26T17:02:27.215Z,57.73
2019-02-26T17:04:52.267Z,62.13
2019-02-26T17:07:19.590Z,58.85
2019-02-26T17:09:47.935Z,58.50
2019-02-26T17:12:14.915Z,57.03
2019-02-26T17:14:43.655Z,59.00
2019-02-26T17:17:10.739Z,64.22
2019-02-26T17:19:38.110Z,58.68
2019-02-26T17:22:05.228Z,62.80
2019-02-26T17:24:32.542Z,57.62
2019-02-26T17:26:59.856Z,60.33
2019-02-26T17:29:27.591Z,59.38
2019-02-26T17:31:54.694Z,55.60
2019-02-26T17:34:23.456Z,75.45
2019-02-26T17:36:52.811Z,62.62
2019-02-26T17:39:20.283Z,58.98
2019-02-26T17:41:47.771Z,54.98
2019-02-26T17:44:15.242Z,60.30
2019-02-26T17:46:42.585Z,59.40
2019-02-26T17:49:10.131Z,57.43
2019-02-26T17:51:37.138Z,54.50
2019-02-26T17:54:04.653Z,56.45
2019-02-26T17:56:32.029Z,57.00
2019-02-26T17:58:59.203Z,52.48
2019-02-26T18:01:26.606Z,54.05
2019-02-26T18:03:53.951Z,56.37
2019-02-26T18:06:21.057Z,56.05
2019-02-26T18:08:48.864Z,60.50
2019-02-26T18:11:15.922Z,58.05
2019-02-26T18:13:42.919Z,58.23
2019-02-26T18:16:10.221Z,55.50
2019-02-26T18:18:37.267Z,66.95
2019-02-26T18:21:05.959Z,60.98
2019-02-26T18:23:37.452Z,58.48
2019-02-26T18:26:02.193Z,55.98
2019-02-26T18:28:29.573Z,57.58
2019-02-26T18:30:56.692Z,57.62
2019-02-26T18:33:23.878Z,54.23
2019-02-26T18:35:51.084Z,60.78
2019-02-26T18:38:18.258Z,53.30
2019-02-26T18:40:45.324Z,54.38
2019-02-26T18:43:14.346Z,59.60
2019-02-26T18:45:41.347Z,59.38
2019-02-26T18:48:08.369Z,68.65
2019-02-26T18:50:35.675Z,63.42
2019-02-26T18:53:03.402Z,61.40
2019-02-26T18:55:32.540Z,57.43
2019-02-26T18:57:59.394Z,59.88
2019-02-26T19:00:26.671Z,56.63
2019-02-26T19:02:54.082Z,62.60
2019-02-26T19:05:23.546Z,67.95
2019-02-26T19:07:50.568Z,66.97
2019-02-26T19:10:20.771Z,69.03
2019-02-26T19:12:47.470Z,59.65
2019-02-26T19:15:15.496Z,59.23
2019-02-26T19:17:44.727Z,59.10
2019-02-26T19:20:12.714Z,59.25
2019-02-26T19:22:41.195Z,59.48
2019-02-26T19:25:09.237Z,57.03
2019-02-26T19:27:37.200Z,57.53
2019-02-26T19:30:06.124Z,52.03
2019-02-26T19:32:35.299Z,59.63
2019-02-26T19:35:11.797Z,58.45
2019-02-26T19:37:31.933Z,59.50
2019-02-26T19:39:58.954Z,59.00
2019-02-26T19:42:25.988Z,54.15
2019-02-26T19:44:53.767Z,60.08
2019-02-26T19:47:22.734Z,57.98
2019-02-26T19:49:50.049Z,69.47
2019-02-26T19:52:17.080Z,65.90
2019-02-26T19:54:44.335Z,57.55
2019-02-26T19:57:12.376Z,58.73
2019-02-26T19:59:39.626Z,55.08
2019-02-26T20:02:06.863Z,64.07
2019-02-26T20:04:38.155Z,58.15
2019-02-26T20:07:04.775Z,62.45
2019-02-26T20:09:31.811Z,58.50
2019-02-26T20:11:59.158Z,57.55
2019-02-26T20:14:26.349Z,59.35
2019-02-26T20:16:53.519Z,64.82
2019-02-26T20:19:20.527Z,63.10
2019-02-26T20:21:51.502Z,71.40
2019-02-26T20:24:17.128Z,65.08
2019-02-26T20:26:44.479Z,55.63
2019-02-26T20:29:12.038Z,56.90
2019-02-26T20:31:39.636Z,56.63
2019-02-26T20:34:07.315Z,60.92
2019-02-26T20:36:35.719Z,64.42
2019-02-26T20:39:07.677Z,54.33
2019-02-26T20:41:34.797Z,54.63
2019-02-26T20:44:01.796Z,57.00
2019-02-26T20:46:28.879Z,56.90
2019-02-26T20:48:55.903Z,55.88
2019-02-26T20:51:26.842Z,52.55
2019-02-26T20:53:51.883Z,53.10
2019-02-26T20:56:19.095Z,53.83
2019-02-26T20:58:46.195Z,57.08
2019-02-26T21:01:13.555Z,49.53
2019-02-26T21:03:40.598Z,52.13
2019-02-26T21:06:07.580Z,52.23
2019-02-26T21:08:35.253Z,53.13
2019-02-26T21:11:03.419Z,53.68
2019-02-26T21:13:34.675Z,51.48
2019-02-26T21:16:07.508Z,51.55
2019-02-26T21:18:35.052Z,56.92
2019-02-26T21:21:20.918Z,57.45
2019-02-26T21:23:48.114Z,52.88
2019-02-26T21:26:19.261Z,53.08
2019-02-26T21:28:44.886Z,54.10
2019-02-26T21:31:12.221Z,54.50
2019-02-26T21:33:39.573Z,64.85
2019-02-26T21:36:07.555Z,53.40
2019-02-26T21:38:38.547Z,55.78
2019-02-26T21:41:03.575Z,56.90
2019-02-26T21:43:34.597Z,55.85
2019-02-26T21:45:59.765Z,57.70
2019-02-26T21:48:27.328Z,52.75
2019-02-26T21:50:54.876Z,52.65
2019-02-26T21:53:22.607Z,62.25
2019-02-26T21:55:49.960Z,53.73
2019-02-26T21:58:21.619Z,58.00
2019-02-26T22:00:50.119Z,59.80
2019-02-26T22:03:17.117Z,59.53
2019-02-26T22:05:44.152Z,56.68
2019-02-26T22:08:11.186Z,56.68
2019-02-26T22:10:40.208Z,52.23
2019-02-26T22:13:07.223Z,56.00
2019-02-26T22:15:36.098Z,49.40
2019-02-26T22:18:03.658Z,54.80
2019-02-26T22:20:36.239Z,56.53
2019-02-26T22:23:00.996Z,58.40
2019-02-26T22:25:29.324Z,56.35
2019-02-26T22:27:56.629Z,61.15
2019-02-26T22:30:23.935Z,60.93
2019-02-26T22:32:51.269Z,60.00
2019-02-26T22:35:18.750Z,59.67
2019-02-26T22:37:46.309Z,65.52
2019-02-26T22:40:13.522Z,59.53
2019-02-26T22:42:41.357Z,59.88
2019-02-26T22:45:11.303Z,62.80
2019-02-26T22:47:41.531Z,57.60
2019-02-26T22:50:10.758Z,59.23
2019-02-26T22:52:37.797Z,50.45
2019-02-26T22:55:05.079Z,58.95
2019-02-26T22:57:33.839Z,54.10
2019-02-26T23:00:00.844Z,50.58
2019-02-26T23:02:29.171Z,52.58
2019-02-26T23:04:56.285Z,51.63
2019-02-26T23:07:23.883Z,48.02
2019-02-26T23:09:52.502Z,58.65
2019-02-26T23:12:21.502Z,48.98
2019-02-26T23:14:48.764Z,47.62
2019-02-26T23:17:16.425Z,50.65
2019-02-26T23:19:45.271Z,51.35
2019-02-26T23:22:12.372Z,45.12
2019-02-26T23:24:40.175Z,47.80
2019-02-26T23:27:08.042Z,46.53
2019-02-26T23:29:39.022Z,48.55
2019-02-26T23:32:07.009Z,46.95
2019-02-26T23:34:34.586Z,47.17
2019-02-26T23:37:01.874Z,51.18
2019-02-26T23:39:29.266Z,48.40
2019-02-26T23:41:57.295Z,45.70
2019-02-26T23:44:24.522Z,44.73
2019-02-26T23:46:51.739Z,52.95
2019-02-26T23:49:19.032Z,57.98
2019-02-26T23:51:46.137Z,59.30
2019-02-26T23:54:13.399Z,55.63
2019-02-26T23:56:40.534Z,52.73
2019-02-26T23:59:08.666Z,54.75
